Time;durP1;ratioP1;P1;durP2;ratioP2;P2;SDS_P1;SDS_P2;PMS_P1;PMS_P2;Temp;Humidity;BMP_temperature;BMP_pressure;BME280_temperature;BME280_humidity;BME280_pressure;Samples;Min_cycle;Max_cycle;Signal;HPM_P1;HPM_P2
2022/05/12 00:11:48;;;;;;;5.18;4.68;;;18.50;86.50;;;;;;4999132;28;20050;-82
2022/05/12 00:26:34;;;;;;;5.10;4.45;;;18.40;88.00;;;;;;5254415;23;20051;-81
2022/05/12 00:29:06;;;;;;;7.30;4.47;;;18.40;88.50;;;;;;5000215;28;20031;-80
2022/05/12 00:31:38;;;;;;;5.82;5.18;;;18.40;88.80;;;;;;4999774;28;20033;-80
2022/05/12 00:34:28;;;;;;;8.18;4.95;;;18.40;88.60;;;;;;5004043;28;20007;-80
2022/05/12 00:37:18;;;;;;;4.55;4.15;;;18.40;88.80;;;;;;5013999;28;20022;-81
2022/05/12 00:40:07;;;;;;;7.57;4.53;;;18.40;88.60;;;;;;5008655;28;20035;-80
2022/05/12 00:43:25;;;;;;;5.82;4.43;;;18.50;88.40;;;;;;5007239;28;20010;-80
2022/05/12 00:46:28;;;;;;;5.85;4.80;;;18.50;88.70;;;;;;5014737;28;20082;-83
2022/05/12 00:49:40;;;;;;;5.13;4.00;;;18.40;88.60;;;;;;5020667;28;20087;-83
2022/05/12 00:52:13;;;;;;;5.30;4.13;;;18.40;89.20;;;;;;5008944;28;20121;-83
2022/05/12 00:54:59;;;;;;;4.97;4.38;;;18.40;90.00;;;;;;5019082;28;20030;-82
2022/05/12 00:57:57;;;;;;;5.50;4.50;;;18.30;90.00;;;;;;5004682;28;20060;-80
2022/05/12 02:09:13;;;;;;;5.05;4.55;;;18.00;91.70;;;;;;4966539;28;20065;-81
2022/05/12 02:30:24;;;;;;;5.22;4.25;;;18.00;91.70;;;;;;5223453;23;20054;-81
2022/05/12 02:33:06;;;;;;;7.20;4.95;;;17.90;91.70;;;;;;5040803;28;20033;-81
2022/05/12 02:36:27;;;;;;;7.53;5.05;;;18.00;91.90;;;;;;5036682;28;20101;-82
2022/05/12 02:39:13;;;;;;;7.10;4.53;;;18.00;91.90;;;;;;5037962;28;20033;-81
2022/05/12 02:41:49;;;;;;;6.35;4.40;;;17.80;91.90;;;;;;5048082;28;20026;-81
2022/05/12 02:44:47;;;;;;;6.25;4.20;;;18.00;91.90;;;;;;5044608;28;20030;-81
2022/05/12 02:51:10;;;;;;;6.03;4.65;;;18.00;91.90;;;;;;5034301;28;20060;-81
2022/05/12 02:53:44;;;;;;;4.40;3.65;;;17.40;91.80;;;;;;5035233;28;20045;-81
2022/05/12 02:57:00;;;;;;;5.47;3.33;;;17.90;91.80;;;;;;5036566;28;20140;-81
2022/05/12 03:03:42;;;;;;;3.83;3.25;;;18.10;91.00;;;;;;4948524;28;20092;-81
2022/05/12 03:20:58;;;;;;;7.50;4.35;;;18.30;91.20;;;;;;4874583;29;20180;-81
2022/05/12 03:27:00;;;;;;;5.72;4.15;;;18.30;91.00;;;;;;4909907;29;20036;-81
2022/05/12 04:20:42;;;;;;;4.85;3.67;;;20.80;80.40;;;;;;5398199;23;20075;-80
2022/05/12 04:23:26;;;;;;;5.78;4.32;;;20.90;80.30;;;;;;5051078;28;20020;-82
2022/05/12 04:25:56;;;;;;;5.78;3.60;;;21.00;81.10;;;;;;5036799;28;20105;-81
2022/05/12 05:02:01;;;;;;;5.75;3.40;;;22.70;75.80;;;;;;5979152;22;20113;-81
2022/05/12 05:22:19;;;;;;;3.38;2.90;;;23.80;71.70;;;;;;5008783;28;20080;-85
2022/05/12 05:25:04;;;;;;;5.32;3.40;;;23.80;71.70;;;;;;4990528;28;20333;-85
2022/05/12 05:27:29;;;;;;;3.63;3.00;;;24.00;71.30;;;;;;4992012;28;20033;-71
2022/05/12 05:29:55;;;;;;;4.32;3.30;;;24.10;70.70;;;;;;4996308;28;20378;-77
2022/05/12 05:32:27;;;;;;;5.65;3.25;;;24.30;69.90;;;;;;4992468;28;20093;-75
2022/05/12 05:34:53;;;;;;;7.25;3.03;;;24.30;68.70;;;;;;4995107;28;20014;-77
2022/05/12 05:37:23;;;;;;;4.00;3.20;;;24.40;69.40;;;;;;4992989;28;20032;-79
2022/05/12 05:39:50;;;;;;;4.25;3.13;;;24.60;69.50;;;;;;4992791;28;20029;-78
2022/05/12 05:42:20;;;;;;;4.78;3.28;;;24.80;69.00;;;;;;4984848;28;20018;-80
2022/05/12 05:44:48;;;;;;;3.53;3.22;;;25.00;69.00;;;;;;4992985;28;20479;-79
2022/05/12 05:47:16;;;;;;;3.30;3.00;;;25.10;67.40;;;;;;4987175;28;20112;-80
2022/05/12 05:49:43;;;;;;;2.97;2.63;;;25.30;67.20;;;;;;4989154;28;20022;-80
2022/05/12 05:54:58;;;;;;;3.55;2.80;;;25.80;66.40;;;;;;4993948;28;21512;-78
2022/05/12 05:57:30;;;;;;;3.13;2.83;;;26.10;65.30;;;;;;4995478;28;20035;-77
2022/05/12 05:59:59;;;;;;;3.85;3.30;;;26.40;64.20;;;;;;4996637;28;20506;-77
2022/05/12 06:02:27;;;;;;;4.93;3.15;;;26.80;63.20;;;;;;4980209;28;20080;-76
2022/05/12 06:04:54;;;;;;;3.88;2.67;;;27.60;62.70;;;;;;4990490;28;20105;-77
2022/05/12 06:07:23;;;;;;;3.67;3.03;;;29.30;61.00;;;;;;4991253;28;20022;-79
2022/05/12 06:09:56;;;;;;;4.63;2.53;;;31.60;57.80;;;;;;4991306;28;20531;-78
2022/05/12 06:12:25;;;;;;;4.00;2.60;;;33.80;53.20;;;;;;4992450;28;20120;-78
2022/05/12 06:14:53;;;;;;;3.08;2.88;;;35.60;50.30;;;;;;4990754;28;20022;-79
2022/05/12 06:17:23;;;;;;;6.60;2.60;;;37.20;46.80;;;;;;4982914;28;20125;-79
2022/05/12 06:19:50;;;;;;;3.30;2.60;;;38.10;44.00;;;;;;4987803;28;20026;-79
2022/05/12 06:22:20;;;;;;;4.43;2.83;;;38.60;43.10;;;;;;4979848;28;20498;-80
2022/05/12 06:24:49;;;;;;;2.53;2.30;;;38.90;42.50;;;;;;4992262;28;20030;-79
2022/05/12 06:27:28;;;;;;;3.08;2.78;;;39.20;41.40;;;;;;4989037;28;20387;-79
2022/05/12 06:29:56;;;;;;;4.75;2.60;;;39.50;41.40;;;;;;4991381;28;20026;-79
2022/05/12 06:32:24;;;;;;;3.95;2.80;;;39.70;40.50;;;;;;4991873;28;20450;-79
2022/05/12 06:34:54;;;;;;;3.38;2.72;;;39.60;39.90;;;;;;4990819;28;20029;-79
2022/05/12 06:37:27;;;;;;;2.67;2.20;;;39.50;39.90;;;;;;4987976;28;20058;-78
2022/05/12 06:39:56;;;;;;;2.97;2.45;;;39.70;39.50;;;;;;4992879;28;21050;-79
2022/05/12 06:42:23;;;;;;;2.78;2.55;;;39.50;39.20;;;;;;5009392;28;20034;-79
2022/05/12 06:44:51;;;;;;;2.72;2.53;;;39.30;39.10;;;;;;5009804;28;20472;-78
2022/05/12 06:47:17;;;;;;;4.47;2.65;;;39.00;40.40;;;;;;4981776;28;20026;-79
2022/05/12 06:49:51;;;;;;;2.60;2.40;;;39.00;39.50;;;;;;4993228;28;20025;-79
2022/05/12 06:52:19;;;;;;;3.00;2.63;;;39.20;39.80;;;;;;4984417;28;20029;-79
2022/05/12 06:54:46;;;;;;;7.40;2.65;;;39.70;39.20;;;;;;4987640;28;20026;-79
2022/05/12 06:57:23;;;;;;;2.97;2.50;;;40.00;39.20;;;;;;4989355;28;20026;-78
2022/05/12 06:59:52;;;;;;;4.05;2.70;;;39.70;38.70;;;;;;4985749;28;20022;-79
2022/05/12 07:02:31;;;;;;;4.07;2.50;;;39.80;38.60;;;;;;4989344;28;20682;-79
2022/05/12 07:05:03;;;;;;;5.45;2.25;;;39.90;38.10;;;;;;4982642;28;20014;-79
2022/05/12 07:07:31;;;;;;;6.97;2.60;;;40.20;37.90;;;;;;5007023;28;20027;-79
2022/05/12 07:10:05;;;;;;;3.00;2.13;;;40.40;37.50;;;;;;5008932;28;20030;-79
2022/05/12 07:12:33;;;;;;;2.92;2.63;;;40.50;37.80;;;;;;4989248;28;20124;-78
2022/05/12 07:15:01;;;;;;;6.18;2.33;;;40.90;37.00;;;;;;4996568;28;20080;-79
2022/05/12 07:17:28;;;;;;;7.35;2.75;;;41.00;36.70;;;;;;4985911;28;20367;-78
2022/05/12 07:28:12;;;;;;;3.83;2.15;;;40.40;36.90;;;;;;4990167;28;20133;-80
2022/05/12 07:31:01;;;;;;;4.55;2.42;;;40.40;37.10;;;;;;4991627;28;20109;-79
2022/05/12 07:33:34;;;;;;;3.47;2.42;;;40.60;36.90;;;;;;4994781;28;20072;-78
2022/05/12 07:36:02;;;;;;;4.13;2.60;;;40.50;37.10;;;;;;4982575;28;20112;-78
2022/05/12 07:38:37;;;;;;;5.07;2.40;;;40.60;36.30;;;;;;4995076;28;20026;-79
2022/05/12 07:41:07;;;;;;;;;;;40.80;36.00;;;;;;4982971;28;20430;-79
2022/05/12 07:43:33;;;;;;;3.78;2.22;;;40.70;36.50;;;;;;4998786;28;19905;-78
2022/05/12 07:46:00;;;;;;;6.03;2.40;;;40.50;36.70;;;;;;4983198;28;20046;-80
2022/05/12 07:48:39;;;;;;;4.28;2.33;;;40.60;35.70;;;;;;4989426;28;20404;-79
2022/05/12 07:51:07;;;;;;;5.47;2.45;;;40.30;36.00;;;;;;4991208;28;20026;-79
2022/05/12 07:53:33;;;;;;;4.10;2.30;;;40.40;35.80;;;;;;4984935;28;20081;-78
2022/05/12 07:56:03;;;;;;;3.53;2.17;;;40.50;35.80;;;;;;4984791;28;20121;-79
2022/05/12 07:58:31;;;;;;;5.30;2.42;;;40.30;35.70;;;;;;4985983;28;20029;-78
2022/05/12 08:01:02;;;;;;;2.05;1.80;;;40.40;35.40;;;;;;4980043;28;20018;-79
2022/05/12 08:03:35;;;;;;;5.45;2.53;;;40.60;35.30;;;;;;4994965;28;20344;-79
2022/05/12 08:06:02;;;;;;;7.53;2.50;;;40.40;35.60;;;;;;4987493;28;20560;-79
2022/05/12 08:08:32;;;;;;;4.75;2.20;;;40.10;35.20;;;;;;4993889;28;20228;-79
2022/05/12 08:10:59;;;;;;;6.57;2.72;;;39.60;36.00;;;;;;4984670;28;20033;-79
2022/05/12 08:13:25;;;;;;;6.03;2.55;;;39.60;36.00;;;;;;4988015;28;20109;-79
2022/05/12 08:15:55;;;;;;;8.48;2.80;;;39.70;36.00;;;;;;4993066;28;20443;-78
2022/05/12 08:18:24;;;;;;;4.68;2.63;;;39.00;35.50;;;;;;4981189;28;20069;-79
2022/05/12 08:20:58;;;;;;;3.75;2.10;;;38.40;36.40;;;;;;4990522;28;20368;-78
2022/05/12 08:23:33;;;;;;;5.95;2.60;;;37.90;36.30;;;;;;5005884;28;20030;-79
2022/05/12 08:26:02;;;;;;;6.45;2.55;;;37.10;37.20;;;;;;4990360;28;20026;-79
2022/05/12 08:28:30;;;;;;;6.38;2.38;;;37.00;37.80;;;;;;4987479;28;20579;-81
2022/05/12 08:30:56;;;;;;;5.15;2.42;;;37.50;38.40;;;;;;4989112;28;20026;-80
2022/05/12 08:33:23;;;;;;;5.07;2.40;;;38.10;37.80;;;;;;5004532;28;20690;-80
2022/05/12 08:35:52;;;;;;;5.55;2.80;;;38.30;37.10;;;;;;4988680;28;20049;-80
2022/05/12 08:38:19;;;;;;;7.97;2.53;;;37.90;37.40;;;;;;4992501;28;20585;-80
2022/05/12 08:40:58;;;;;;;4.22;2.55;;;37.30;38.30;;;;;;4992347;28;20022;-80
2022/05/12 08:43:52;;;;;;;3.88;2.33;;;36.70;38.30;;;;;;5008748;28;20115;-79
2022/05/12 08:46:25;;;;;;;7.72;3.85;;;35.60;39.60;;;;;;5009616;28;20041;-80
2022/05/12 08:49:26;;;;;;;4.35;2.45;;;35.20;40.20;;;;;;4988813;28;20093;-79
2022/05/12 08:52:10;;;;;;;8.65;2.42;;;34.90;40.20;;;;;;4980048;28;20028;-80
2022/05/12 08:55:03;;;;;;;6.25;2.58;;;33.80;40.80;;;;;;5002758;28;20028;-80
2022/05/12 08:57:36;;;;;;;6.20;3.15;;;33.40;41.90;;;;;;4992319;28;20025;-80
2022/05/12 09:00:12;;;;;;;4.30;2.60;;;33.10;41.70;;;;;;4982366;28;20371;-79
2022/05/12 09:03:08;;;;;;;3.70;2.63;;;32.90;42.60;;;;;;4987345;28;20025;-78
2022/05/12 09:05:42;;;;;;;5.85;2.55;;;32.80;42.20;;;;;;4983175;28;20050;-78
2022/05/12 09:08:30;;;;;;;3.70;2.63;;;33.40;42.30;;;;;;4990600;28;20041;-79
2022/05/12 09:11:14;;;;;;;4.25;2.67;;;34.10;41.40;;;;;;4987753;28;20100;-78
2022/05/12 09:13:48;;;;;;;2.80;2.30;;;33.90;40.90;;;;;;4983464;28;20057;-78
2022/05/12 09:16:32;;;;;;;3.00;2.45;;;33.80;41.30;;;;;;4982461;28;20081;-78
2022/05/12 09:19:14;;;;;;;6.15;2.78;;;34.70;40.80;;;;;;4984828;28;20152;-78
2022/05/12 09:21:40;;;;;;;5.10;2.60;;;34.30;40.40;;;;;;4989770;28;20497;-79
2022/05/12 09:24:10;;;;;;;5.40;2.40;;;33.50;41.00;;;;;;4986250;28;20026;-77
2022/05/12 09:27:06;;;;;;;4.20;2.58;;;33.00;41.90;;;;;;4992419;28;20018;-77
2022/05/12 09:29:46;;;;;;;7.28;2.55;;;33.20;41.80;;;;;;4983780;28;20021;-78
2022/05/12 09:32:35;;;;;;;3.60;2.55;;;33.40;40.50;;;;;;4987438;28;20105;-78
2022/05/12 09:35:26;;;;;;;6.25;2.60;;;32.80;41.30;;;;;;4978265;28;20435;-77
2022/05/12 09:37:53;;;;;;;4.43;2.70;;;31.70;43.00;;;;;;4985643;28;20039;-77
2022/05/12 09:40:34;;;;;;;7.68;3.00;;;30.80;43.60;;;;;;4981021;28;20011;-77
2022/05/12 09:43:24;;;;;;;4.35;2.58;;;30.30;44.50;;;;;;4995522;28;20273;-77
2022/05/12 09:46:13;;;;;;;9.32;2.72;;;30.80;44.00;;;;;;4984047;28;20471;-78
2022/05/12 09:48:50;;;;;;;8.95;2.72;;;31.90;43.30;;;;;;4989842;28;20022;-79
2022/05/12 09:51:29;;;;;;;3.28;2.40;;;33.30;42.20;;;;;;4989798;28;20018;-79
2022/05/12 09:54:32;;;;;;;4.65;2.40;;;34.80;40.90;;;;;;4983768;28;20036;-79
2022/05/12 09:57:24;;;;;;;8.15;2.55;;;35.70;39.20;;;;;;4990344;28;20442;-78
2022/05/12 09:59:56;;;;;;;4.00;2.70;;;36.00;38.60;;;;;;4993673;28;20076;-79
2022/05/12 10:08:28;;;;;;;5.97;2.47;;;35.90;38.80;;;;;;4992639;28;20667;-79
2022/05/12 10:11:06;;;;;;;3.75;2.30;;;35.90;38.60;;;;;;4993528;28;20136;-79
2022/05/12 10:13:47;;;;;;;5.53;2.80;;;35.30;39.10;;;;;;4993513;28;20022;-79
2022/05/12 10:16:17;;;;;;;5.13;2.85;;;34.40;40.30;;;;;;4991659;28;20593;-78
2022/05/12 10:18:48;;;;;;;3.75;2.30;;;34.00;40.20;;;;;;4995443;28;20019;-78
2022/05/12 10:21:27;;;;;;;3.60;2.60;;;33.50;41.00;;;;;;4989403;28;20064;-77
2022/05/12 10:24:12;;;;;;;6.13;2.50;;;32.90;41.50;;;;;;5008401;28;20558;-77
2022/05/12 10:27:18;;;;;;;5.70;2.50;;;32.30;41.10;;;;;;5014799;28;20030;-77
2022/05/12 10:30:04;;;;;;;5.10;2.83;;;31.50;42.90;;;;;;5003800;28;20104;-78
2022/05/12 10:33:05;;;;;;;5.60;2.75;;;31.10;43.50;;;;;;5008054;28;20472;-77
2022/05/12 10:36:13;;;;;;;7.35;2.72;;;30.70;44.20;;;;;;4991626;28;20109;-76
2022/05/12 10:38:49;;;;;;;8.60;3.13;;;31.10;44.80;;;;;;4987580;28;20116;-78
2022/05/12 10:41:25;;;;;;;6.20;2.72;;;31.60;44.50;;;;;;4982051;28;20486;-78
2022/05/12 10:43:56;;;;;;;4.60;2.72;;;32.20;43.60;;;;;;4987227;28;20027;-77
2022/05/12 10:46:41;;;;;;;4.82;3.05;;;32.70;43.60;;;;;;4991786;28;20065;-77
2022/05/12 10:49:33;;;;;;;3.10;2.80;;;33.00;43.10;;;;;;4986531;28;20076;-78
2022/05/12 10:52:18;;;;;;;4.53;2.65;;;33.20;42.10;;;;;;4985537;28;20293;-77
2022/05/12 10:55:22;;;;;;;4.00;2.72;;;32.90;43.30;;;;;;4983200;28;20052;-77
2022/05/12 10:58:06;;;;;;;3.65;2.60;;;32.70;43.10;;;;;;4994506;28;20053;-78
2022/05/12 11:00:42;;;;;;;5.78;2.90;;;32.80;43.10;;;;;;4992728;28;20104;-78
2022/05/12 11:03:29;;;;;;;4.95;2.90;;;32.90;43.20;;;;;;4996979;28;20026;-78
2022/05/12 11:05:59;;;;;;;4.60;2.72;;;32.80;43.30;;;;;;4986061;28;20030;-78
2022/05/12 11:08:50;;;;;;;4.63;3.10;;;32.10;43.60;;;;;;4992963;28;20079;-76
2022/05/12 11:11:37;;;;;;;6.85;2.83;;;31.80;44.90;;;;;;4984870;28;20018;-77
2022/05/12 11:14:21;;;;;;;6.90;3.30;;;31.60;44.80;;;;;;4981742;28;20026;-75
2022/05/12 11:17:25;;;;;;;5.90;2.72;;;31.50;45.50;;;;;;4984452;28;20026;-77
2022/05/12 11:20:06;;;;;;;6.30;3.08;;;31.60;45.50;;;;;;4986683;28;20380;-77
2022/05/12 11:22:56;;;;;;;3.38;2.88;;;31.60;45.30;;;;;;4989007;28;20105;-77
2022/05/12 11:25:59;;;;;;;4.60;2.28;;;31.70;45.00;;;;;;4988732;28;20808;-76
2022/05/12 11:31:56;;;;;;;4.50;2.70;;;31.70;44.80;;;;;;4977939;28;20114;-77
2022/05/12 11:34:25;;;;;;;6.07;2.95;;;31.70;45.10;;;;;;4987295;28;20029;-77
2022/05/12 11:36:54;;;;;;;4.20;3.10;;;31.60;45.00;;;;;;4982346;28;20029;-76
2022/05/12 11:39:27;;;;;;;4.35;2.75;;;31.60;44.90;;;;;;4985756;28;20018;-77
2022/05/12 11:42:20;;;;;;;3.95;2.80;;;31.50;45.50;;;;;;4985480;28;20739;-76
2022/05/12 11:45:04;;;;;;;4.45;2.88;;;31.30;45.00;;;;;;4993554;28;20018;-78
2022/05/12 11:47:58;;;;;;;7.00;3.13;;;31.10;45.80;;;;;;4984311;28;20102;-79
2022/05/12 11:50:59;;;;;;;8.20;3.15;;;31.00;45.80;;;;;;4996073;28;20034;-80
2022/05/12 11:53:33;;;;;;;4.03;2.60;;;30.70;45.60;;;;;;4984599;28;20034;-78
2022/05/12 11:56:03;;;;;;;4.50;2.70;;;30.70;46.40;;;;;;4993991;28;20364;-79
2022/05/12 11:58:48;;;;;;;5.10;2.90;;;30.70;46.20;;;;;;5006435;28;20021;-80
2022/05/12 12:01:39;;;;;;;3.88;2.78;;;30.70;46.90;;;;;;4983909;28;20021;-80
2022/05/12 12:04:14;;;;;;;8.60;3.00;;;30.70;46.50;;;;;;4998172;28;20036;-80
2022/05/12 12:06:40;;;;;;;5.18;2.95;;;30.80;46.60;;;;;;4981810;28;20037;-80
2022/05/12 12:09:37;;;;;;;5.57;3.08;;;30.80;47.00;;;;;;4983172;28;20018;-79
2022/05/12 12:12:09;;;;;;;3.97;2.70;;;30.90;46.70;;;;;;5007705;28;20633;-80
2022/05/12 12:14:46;;;;;;;4.15;3.05;;;30.70;46.80;;;;;;4980094;28;20050;-80
2022/05/12 12:17:34;;;;;;;6.68;2.80;;;30.80;46.30;;;;;;4984745;28;20040;-82
2022/05/12 12:20:11;;;;;;;2.92;2.72;;;30.70;46.70;;;;;;4984410;28;20061;-80
2022/05/12 12:22:48;;;;;;;3.80;2.90;;;30.60;46.60;;;;;;4988400;28;20080;-80
2022/05/12 12:25:32;;;;;;;;;;;30.40;47.00;;;;;;4990126;28;20537;-80
2022/05/12 12:28:34;;;;;;;3.92;3.17;;;30.40;47.10;;;;;;4983705;28;19906;-80
2022/05/12 12:31:04;;;;;;;5.38;3.08;;;30.50;47.10;;;;;;5006463;28;20030;-80
2022/05/12 12:33:32;;;;;;;7.10;3.08;;;30.60;47.20;;;;;;4989036;28;20730;-79
2022/05/12 12:36:15;;;;;;;4.15;2.72;;;30.70;46.90;;;;;;4999565;28;20459;-80
2022/05/12 12:38:47;;;;;;;4.88;3.00;;;30.80;47.00;;;;;;5001400;28;20730;-80
2022/05/12 12:41:31;;;;;;;5.82;3.10;;;30.70;46.40;;;;;;4993981;28;20053;-80
2022/05/12 12:44:21;;;;;;;5.90;2.85;;;30.60;47.40;;;;;;4990931;28;20041;-79
2022/05/12 12:47:25;;;;;;;5.03;2.70;;;30.50;47.10;;;;;;4978512;28;20022;-79
2022/05/12 12:50:10;;;;;;;6.65;2.90;;;30.50;47.20;;;;;;4998281;28;20524;-78
2022/05/12 12:52:47;;;;;;;6.43;3.20;;;30.40;47.00;;;;;;5000286;28;20045;-79
2022/05/12 12:58:35;;;;;;;4.78;2.90;;;30.40;47.80;;;;;;4992114;28;20028;-80
2022/05/12 13:01:11;;;;;;;5.30;2.70;;;30.30;47.30;;;;;;4991681;28;20061;-83
2022/05/12 13:03:43;;;;;;;5.45;3.00;;;30.20;47.80;;;;;;4982128;28;20547;-80
2022/05/12 13:06:15;;;;;;;4.90;3.00;;;30.20;47.80;;;;;;4985114;28;20030;-80
2022/05/12 13:08:43;;;;;;;3.85;2.60;;;30.20;47.90;;;;;;4991115;28;20360;-80
2022/05/12 13:11:18;;;;;;;5.82;3.38;;;30.20;48.20;;;;;;4986613;28;20026;-79
2022/05/12 13:13:52;;;;;;;5.90;3.33;;;30.10;47.90;;;;;;4992308;28;20049;-79
2022/05/12 13:16:23;;;;;;;7.13;2.97;;;30.10;48.10;;;;;;4984168;28;20722;-79
2022/05/12 13:18:55;;;;;;;4.82;3.10;;;30.10;47.80;;;;;;4994912;28;20407;-79
2022/05/12 13:21:26;;;;;;;7.65;3.40;;;30.10;48.30;;;;;;4985721;28;20034;-79
2022/05/12 13:24:04;;;;;;;6.60;3.10;;;29.90;48.40;;;;;;4988705;28;20033;-82
2022/05/12 13:26:32;;;;;;;4.40;3.05;;;29.80;48.60;;;;;;5001589;28;20460;-77
2022/05/12 13:29:06;;;;;;;3.50;3.20;;;29.70;50.00;;;;;;4986330;28;20029;-78
2022/05/12 13:31:37;;;;;;;5.03;3.08;;;29.80;49.10;;;;;;4984974;28;20019;-81
2022/05/12 13:34:12;;;;;;;7.72;3.08;;;29.70;49.00;;;;;;4988897;28;20030;-78
2022/05/12 13:36:41;;;;;;;6.07;3.40;;;29.70;49.30;;;;;;5004998;28;20038;-78
2022/05/12 13:39:11;;;;;;;5.70;2.80;;;29.70;49.30;;;;;;4998986;28;20026;-80
2022/05/12 13:41:46;;;;;;;7.63;3.45;;;29.70;49.40;;;;;;4991541;28;20073;-79
2022/05/12 13:44:25;;;;;;;7.03;3.28;;;29.80;49.80;;;;;;4991254;28;20018;-80
2022/05/12 13:47:04;;;;;;;6.07;3.10;;;29.70;48.70;;;;;;4992162;28;20031;-79
2022/05/12 13:49:50;;;;;;;5.35;3.22;;;29.60;49.10;;;;;;4989803;28;20022;-79
2022/05/12 13:52:37;;;;;;;5.55;3.22;;;29.70;49.90;;;;;;4986551;28;20029;-80
2022/05/12 13:55:14;;;;;;;4.57;3.10;;;29.70;49.10;;;;;;4996973;28;20037;-79
2022/05/12 13:58:07;;;;;;;5.93;3.42;;;29.70;49.20;;;;;;4991901;28;20163;-79
2022/05/12 14:00:33;;;;;;;6.70;3.33;;;29.70;49.10;;;;;;4996516;28;20471;-78
2022/05/12 14:03:20;;;;;;;4.88;3.35;;;29.70;49.20;;;;;;4997767;28;20867;-80
2022/05/12 14:05:53;;;;;;;4.38;3.00;;;29.70;49.10;;;;;;5006113;28;20551;-80
2022/05/12 14:08:21;;;;;;;4.47;3.38;;;29.60;48.90;;;;;;4989550;28;20066;-79
2022/05/12 14:11:04;;;;;;;6.88;3.10;;;29.50;49.30;;;;;;5006427;28;20014;-79
2022/05/12 14:19:15;;;;;;;5.45;3.03;;;29.40;49.50;;;;;;4991080;28;20041;-80
2022/05/12 14:21:53;;;;;;;4.50;3.00;;;29.50;49.40;;;;;;4989054;28;20026;-80
2022/05/12 14:24:33;;;;;;;5.22;3.00;;;29.40;49.30;;;;;;4986090;28;20029;-79
2022/05/12 14:26:59;;;;;;;5.00;3.03;;;29.50;50.20;;;;;;4997044;28;20034;-80
2022/05/12 14:29:26;;;;;;;5.20;2.90;;;29.50;50.00;;;;;;4988148;28;20042;-79
2022/05/12 14:31:54;;;;;;;8.23;3.60;;;29.40;49.70;;;;;;4992749;28;20042;-79
2022/05/12 14:34:20;;;;;;;5.35;3.42;;;29.40;49.60;;;;;;4995697;28;20014;-80
2022/05/12 14:36:51;;;;;;;3.42;3.13;;;29.40;49.90;;;;;;4989902;28;20071;-80
2022/05/12 14:39:17;;;;;;;5.95;3.20;;;29.40;50.50;;;;;;4990655;28;20018;-80
2022/05/12 14:41:44;;;;;;;3.67;3.38;;;29.40;50.20;;;;;;4980273;28;20022;-79
2022/05/12 14:44:10;;;;;;;5.75;3.42;;;29.40;50.30;;;;;;4987692;28;20053;-80
2022/05/12 14:46:43;;;;;;;6.32;3.60;;;29.40;50.70;;;;;;4994649;28;20403;-78
2022/05/12 14:49:15;;;;;;;9.73;3.50;;;29.40;49.90;;;;;;4988603;28;20045;-80
2022/05/12 14:51:52;;;;;;;7.07;3.15;;;29.30;50.50;;;;;;4984824;28;20026;-80
2022/05/12 14:54:17;;;;;;;5.50;3.45;;;29.30;50.90;;;;;;4990624;28;20022;-79
2022/05/12 14:56:44;;;;;;;7.15;3.53;;;29.30;50.70;;;;;;4989198;28;20082;-79
2022/05/12 14:59:13;;;;;;;5.20;3.53;;;29.30;50.60;;;;;;4991074;28;20033;-78
2022/05/12 15:01:41;;;;;;;4.90;3.58;;;29.20;51.10;;;;;;4990426;28;20467;-79
2022/05/12 15:04:07;;;;;;;4.95;3.45;;;29.20;50.80;;;;;;5003491;28;20022;-79
2022/05/12 15:06:35;;;;;;;4.07;3.67;;;29.20;51.40;;;;;;4994453;28;20053;-77
2022/05/12 15:09:12;;;;;;;3.67;3.30;;;29.10;50.80;;;;;;4989079;28;20022;-79
2022/05/12 15:11:38;;;;;;;7.40;3.30;;;29.10;51.10;;;;;;4992183;28;20452;-78
2022/05/12 15:14:05;;;;;;;4.53;3.60;;;29.10;51.50;;;;;;5010881;28;20117;-79
2022/05/12 15:16:38;;;;;;;6.97;3.63;;;29.10;50.60;;;;;;4988575;28;20360;-79
2022/05/12 15:19:09;;;;;;;5.53;3.30;;;29.00;51.30;;;;;;4990711;28;20467;-78
2022/05/12 15:21:34;;;;;;;6.18;3.65;;;28.90;51.90;;;;;;4997451;28;20030;-79
2022/05/12 15:24:02;;;;;;;5.85;3.47;;;28.90;51.50;;;;;;4986308;28;20044;-80
2022/05/12 15:26:32;;;;;;;5.13;3.17;;;28.80;51.70;;;;;;4988037;28;20472;-79
2022/05/12 15:29:01;;;;;;;4.07;3.63;;;28.80;51.60;;;;;;4978417;28;20390;-80
2022/05/12 15:31:28;;;;;;;5.07;3.50;;;28.70;51.40;;;;;;4990482;28;20021;-79
2022/05/12 15:33:57;;;;;;;4.53;3.42;;;28.70;51.60;;;;;;4982156;28;20034;-78
2022/05/12 15:36:36;;;;;;;6.43;3.42;;;28.60;50.90;;;;;;4995653;28;20761;-80
2022/05/12 15:39:14;;;;;;;4.68;3.67;;;28.60;51.20;;;;;;4980361;28;20022;-79
2022/05/12 15:41:42;;;;;;;3.45;3.10;;;28.50;51.20;;;;;;4987900;28;20025;-79
2022/05/12 15:44:13;;;;;;;3.83;2.83;;;28.40;51.30;;;;;;4987997;28;20482;-78
2022/05/12 15:46:44;;;;;;;4.15;3.20;;;28.50;51.60;;;;;;4989789;28;20029;-78
2022/05/12 15:49:25;;;;;;;6.82;3.35;;;28.50;51.20;;;;;;5001097;28;20018;-77
2022/05/12 15:51:53;;;;;;;4.45;3.20;;;28.50;51.00;;;;;;4987176;28;20064;-76
2022/05/12 15:54:22;;;;;;;3.42;3.10;;;28.50;50.90;;;;;;4981775;28;20525;-77
2022/05/12 15:56:48;;;;;;;4.55;3.28;;;28.40;50.80;;;;;;4981925;28;20018;-77
2022/05/12 15:59:26;;;;;;;4.72;3.50;;;28.40;50.60;;;;;;4989627;28;20432;-75
2022/05/12 16:01:53;;;;;;;4.22;3.08;;;28.30;50.60;;;;;;4983888;28;20843;-77
2022/05/12 16:04:22;;;;;;;4.80;3.10;;;28.30;50.30;;;;;;4991740;28;20017;-79
2022/05/12 16:06:48;;;;;;;7.65;3.30;;;28.30;50.40;;;;;;4980758;28;20026;-77
2022/05/12 16:09:15;;;;;;;5.28;3.05;;;28.30;50.80;;;;;;4986623;28;20030;-78
2022/05/12 16:14:22;;;;;;;8.80;3.40;;;28.20;50.80;;;;;;4988923;28;20033;-80
2022/05/12 16:16:55;;;;;;;4.43;2.97;;;28.20;50.40;;;;;;4983885;28;20033;-79
2022/05/12 16:19:27;;;;;;;6.05;3.20;;;28.10;50.60;;;;;;4986918;28;20057;-76
2022/05/12 16:21:52;;;;;;;6.20;3.10;;;28.10;50.70;;;;;;4992722;28;20062;-77
2022/05/12 16:24:23;;;;;;;5.57;2.90;;;28.10;50.60;;;;;;4982838;28;20692;-76
2022/05/12 16:26:53;;;;;;;4.28;3.13;;;28.10;50.90;;;;;;4985174;28;20025;-74
2022/05/12 16:29:31;;;;;;;5.20;3.22;;;28.00;51.00;;;;;;4976663;28;20025;-74
2022/05/12 16:31:56;;;;;;;4.88;3.13;;;28.00;51.30;;;;;;4992797;28;20693;-74
2022/05/12 16:34:23;;;;;;;;;;;27.90;51.00;;;;;;4988960;28;20046;-75
2022/05/12 16:36:53;;;;;;;3.83;3.20;;;27.90;51.30;;;;;;4993796;28;19920;-74
2022/05/12 16:39:20;;;;;;;7.10;3.40;;;27.80;51.80;;;;;;5002739;28;20109;-75
2022/05/12 16:41:47;;;;;;;5.38;3.25;;;27.80;51.60;;;;;;4991767;28;20018;-76
2022/05/12 16:44:15;;;;;;;13.00;3.40;;;27.70;51.60;;;;;;4988773;28;20053;-76
2022/05/12 16:46:49;;;;;;;6.07;3.13;;;27.60;52.00;;;;;;4987906;28;20023;-76
2022/05/12 16:49:22;;;;;;;4.85;3.50;;;27.60;52.30;;;;;;4988841;28;20029;-75
2022/05/12 16:51:48;;;;;;;4.53;3.50;;;27.60;52.20;;;;;;4988865;28;20028;-77
2022/05/12 16:54:14;;;;;;;7.38;3.70;;;27.50;52.40;;;;;;4981161;28;20527;-76
2022/05/12 16:56:41;;;;;;;;;;;27.50;52.30;;;;;;4982193;28;20038;-77
2022/05/12 16:59:07;;;;;;;8.02;4.03;;;27.50;53.00;;;;;;4987874;28;19981;-76
2022/05/12 17:01:33;;;;;;;11.45;3.80;;;27.40;52.90;;;;;;4985441;28;20098;-76
2022/05/12 17:03:58;;;;;;;;;;;27.40;53.70;;;;;;4994254;28;20030;-76
2022/05/12 17:06:25;;;;;;;4.55;3.50;;;27.30;54.00;;;;;;4984580;28;19967;-76
2022/05/12 17:08:51;;;;;;;6.90;3.42;;;27.20;53.60;;;;;;4992284;28;20025;-76
2022/05/12 17:11:17;;;;;;;4.68;3.50;;;27.10;53.90;;;;;;4981381;28;20636;-76
2022/05/12 17:13:43;;;;;;;;;;;27.10;54.60;;;;;;4991067;28;20053;-76
2022/05/12 17:16:16;;;;;;;5.25;3.40;;;27.10;54.90;;;;;;5002866;28;19964;-78
2022/05/12 17:18:45;;;;;;;6.80;3.55;;;27.00;54.30;;;;;;4994747;28;20030;-78
2022/05/12 17:21:11;;;;;;;9.25;3.90;;;26.90;54.60;;;;;;4988543;28;20022;-78
2022/05/12 17:23:40;;;;;;;;;;;26.90;54.70;;;;;;4999271;28;20018;-77
2022/05/12 17:26:06;;;;;;;9.00;3.70;;;26.80;55.60;;;;;;4989235;28;19929;-77
2022/05/12 17:28:34;;;;;;;;;;;26.70;56.20;;;;;;5005115;28;20026;-78
2022/05/12 17:31:03;;;;;;;8.43;3.80;;;26.70;56.50;;;;;;4990595;28;19902;-77
2022/05/12 17:33:30;;;;;;;4.85;3.38;;;26.60;56.90;;;;;;4989167;28;20026;-77
2022/05/12 17:35:55;;;;;;;6.80;3.75;;;26.50;57.00;;;;;;4990211;28;20046;-77
2022/05/12 17:38:22;;;;;;;;;;;26.50;57.50;;;;;;4992699;28;20022;-77
2022/05/12 17:40:54;;;;;;;3.97;3.37;;;26.50;57.30;;;;;;5007938;28;19906;-77
2022/05/12 17:43:24;;;;;;;5.63;3.40;;;26.50;57.10;;;;;;4987963;28;20472;-77
2022/05/12 17:45:53;;;;;;;4.43;3.58;;;26.50;56.90;;;;;;4990922;28;20077;-77
2022/05/12 17:48:21;;;;;;;6.95;3.63;;;26.40;57.30;;;;;;4991792;28;20371;-77
2022/05/12 17:50:50;;;;;;;4.53;3.20;;;26.40;57.70;;;;;;4995250;28;20353;-77
2022/05/12 17:53:19;;;;;;;5.00;3.40;;;26.30;58.00;;;;;;4990479;28;20030;-77
2022/05/12 17:55:46;;;;;;;4.32;3.53;;;26.30;58.60;;;;;;4995046;28;20028;-75
2022/05/12 17:58:19;;;;;;;3.85;3.53;;;26.30;59.30;;;;;;4991861;28;20035;-74
2022/05/12 18:00:45;;;;;;;4.15;3.28;;;26.20;58.60;;;;;;4997788;28;20033;-75